Time;durP1;ratioP1;P1;durP2;ratioP2;P2;SDS_P1;SDS_P2;PMS_P1;PMS_P2;Temp;Humidity;BMP_temperature;BMP_pressure;BME280_temperature;BME280_humidity;BME280_pressure;Samples;Min_cycle;Max_cycle;Signal;HPM_P1;HPM_P2
2022/03/02 00:01:24;;;;;;;25.70;18.07;;;;;;;0.74;65.06;95135.58;1543344;90;21244;-51
2022/03/02 00:03:50;;;;;;;26.87;17.15;;;;;;;0.85;64.98;95139.15;1533286;92;21016;-51
2022/03/02 00:06:17;;;;;;;32.28;18.00;;;;;;;0.94;64.43;95134.77;1550972;90;21068;-51
2022/03/02 00:08:45;;;;;;;27.15;17.67;;;;;;;0.91;64.27;95124.09;1536852;92;21473;-52
2022/03/02 00:11:12;;;;;;;26.25;17.30;;;;;;;0.91;64.24;95126.80;1540878;90;21295;-52
2022/03/02 00:13:43;;;;;;;32.93;20.52;;;;;;;0.89;64.22;95123.70;1530878;91;21158;-53
2022/03/02 00:16:09;;;;;;;29.20;19.40;;;;;;;0.81;64.19;95115.90;1552907;91;21107;-51
2022/03/02 00:18:36;;;;;;;27.82;18.75;;;;;;;0.75;64.45;95110.05;1544425;92;21136;-52
2022/03/02 00:21:03;;;;;;;27.77;16.62;;;;;;;0.79;64.70;95105.44;1550917;91;21064;-52
2022/03/02 00:23:30;;;;;;;31.37;19.87;;;;;;;0.83;64.50;95103.55;1538899;90;21113;-51
2022/03/02 00:25:57;;;;;;;36.93;21.05;;;;;;;0.76;64.62;95095.36;1515267;92;21186;-49
2022/03/02 00:28:25;;;;;;;35.83;21.10;;;;;;;0.77;65.14;95096.16;1528080;92;21055;-51
2022/03/02 00:30:52;;;;;;;40.15;25.23;;;;;;;0.85;64.95;95090.41;1515047;92;21605;-51
2022/03/02 00:33:19;;;;;;;43.95;24.85;;;;;;;0.82;64.79;95089.81;1541347;91;21031;-52
2022/03/02 00:35:46;;;;;;;41.08;25.32;;;;;;;0.79;65.24;95085.72;1516082;92;21111;-51
2022/03/02 00:38:13;;;;;;;37.60;22.98;;;;;;;0.87;65.22;95090.02;1521628;92;21957;-51
2022/03/02 00:40:40;;;;;;;39.23;24.35;;;;;;;0.97;64.94;95084.67;1522143;90;21516;-51
2022/03/02 00:43:09;;;;;;;39.78;24.67;;;;;;;0.99;64.71;95076.94;1515816;92;21077;-52
2022/03/02 00:45:36;;;;;;;41.53;23.75;;;;;;;0.97;64.64;95079.25;1520347;92;21146;-52
2022/03/02 00:48:06;;;;;;;38.50;25.02;;;;;;;0.92;64.56;95074.20;1542724;90;21071;-49
2022/03/02 00:50:33;;;;;;;39.05;23.20;;;;;;;0.83;64.83;95067.00;1535598;90;21193;-50
2022/03/02 00:53:02;;;;;;;40.90;24.47;;;;;;;0.80;64.93;95063.66;1541305;90;21060;-52
2022/03/02 00:55:30;;;;;;;36.00;22.52;;;;;;;0.71;65.03;95068.65;1520825;92;21553;-50
2022/03/02 00:57:56;;;;;;;37.03;22.40;;;;;;;0.62;65.21;95060.06;1541669;92;21059;-51
2022/03/02 01:00:24;;;;;;;38.33;22.77;;;;;;;0.48;65.54;95058.62;1517546;92;21121;-50
2022/03/02 01:02:50;;;;;;;47.60;26.50;;;;;;;0.40;65.81;95057.00;1544408;90;21458;-51
2022/03/02 01:05:17;;;;;;;44.67;25.15;;;;;;;0.37;66.24;95055.64;1548254;90;21045;-52
2022/03/02 01:07:45;;;;;;;43.92;25.10;;;;;;;0.42;66.54;95047.17;1548825;90;21005;-51
2022/03/02 01:10:15;;;;;;;42.53;23.35;;;;;;;0.49;66.63;95044.51;1542184;91;21106;-50
2022/03/02 01:12:44;;;;;;;41.05;25.25;;;;;;;0.60;66.58;95054.25;1515964;92;21146;-50
2022/03/02 01:15:16;;;;;;;49.10;27.17;;;;;;;0.67;66.60;95043.49;1546212;90;21183;-52
2022/03/02 01:17:45;;;;;;;52.25;28.67;;;;;;;0.77;66.63;95040.05;1524476;92;21503;-50
2022/03/02 01:20:12;;;;;;;47.23;26.52;;;;;;;0.95;66.61;95040.94;1548691;90;21144;-50
2022/03/02 01:22:39;;;;;;;55.88;30.55;;;;;;;1.08;65.90;95040.83;1550952;90;21814;-50
2022/03/02 01:25:07;;;;;;;57.27;29.60;;;;;;;1.09;65.79;95038.31;1541895;91;20997;-50
2022/03/02 01:27:36;;;;;;;51.40;30.50;;;;;;;1.18;65.53;95036.02;1525547;90;21177;-50
2022/03/02 01:30:08;;;;;;;52.65;30.20;;;;;;;1.16;65.30;95032.91;1502731;92;21110;-50
2022/03/02 01:32:35;;;;;;;62.30;33.73;;;;;;;1.18;65.43;95038.73;1519564;92;21581;-51
2022/03/02 01:35:03;;;;;;;61.75;33.58;;;;;;;1.28;65.32;95029.88;1518639;92;21069;-50
2022/03/02 01:37:30;;;;;;;60.10;32.23;;;;;;;1.33;64.97;95033.57;1519454;92;21143;-50
2022/03/02 01:39:57;;;;;;;65.47;35.52;;;;;;;1.38;64.60;95029.16;1519177;92;21186;-52
2022/03/02 01:42:24;;;;;;;57.00;31.65;;;;;;;1.29;64.67;95036.09;1534635;91;21144;-49
2022/03/02 01:44:51;;;;;;;65.28;35.90;;;;;;;1.24;64.82;95026.39;1528406;92;21560;-51
2022/03/02 01:47:18;;;;;;;48.98;28.57;;;;;;;1.13;64.99;95035.03;1542761;90;21027;-51
2022/03/02 01:49:46;;;;;;;50.73;29.92;;;;;;;1.04;65.18;95026.48;1548402;91;20998;-50
2022/03/02 01:52:13;;;;;;;49.38;28.25;;;;;;;0.95;65.39;95024.69;1546470;91;21123;-50
2022/03/02 01:54:40;;;;;;;43.83;27.27;;;;;;;0.95;65.96;95021.22;1522223;92;21046;-50
2022/03/02 01:57:07;;;;;;;46.90;26.87;;;;;;;0.97;65.67;95016.95;1537388;90;21008;-54
2022/03/02 01:59:33;;;;;;;47.50;29.07;;;;;;;0.90;65.75;95018.28;1522245;92;21065;-57
2022/03/02 02:02:00;;;;;;;52.33;30.70;;;;;;;0.82;66.21;95007.23;1528608;92;21651;-52
2022/03/02 02:04:27;;;;;;;49.03;29.85;;;;;;;0.92;66.65;95001.08;1543065;90;21160;-51
2022/03/02 02:06:53;;;;;;;46.77;28.42;;;;;;;1.04;66.16;95003.47;1523893;92;21702;-50
2022/03/02 02:09:21;;;;;;;49.63;30.52;;;;;;;1.03;65.85;95005.98;1522497;92;21073;-51
2022/03/02 02:11:47;;;;;;;52.93;30.77;;;;;;;0.93;65.94;94998.56;1541071;90;21128;-54
2022/03/02 02:14:14;;;;;;;53.98;30.52;;;;;;;0.87;66.04;94989.27;1540081;92;21601;-50
2022/03/02 02:16:42;;;;;;;52.10;31.68;;;;;;;0.84;66.30;94999.50;1530321;91;21889;-52
2022/03/02 02:19:10;;;;;;;49.63;29.80;;;;;;;0.83;66.21;94999.88;1538669;91;21148;-51
2022/03/02 02:21:36;;;;;;;48.78;28.65;;;;;;;0.83;66.48;94994.45;1522870;92;21559;-50
2022/03/02 02:24:05;;;;;;;47.83;27.77;;;;;;;0.78;66.43;94994.82;1521112;92;21113;-52
2022/03/02 02:26:32;;;;;;;44.23;27.48;;;;;;;0.73;66.56;94985.13;1528082;92;21061;-50
2022/03/02 02:28:58;;;;;;;46.42;28.42;;;;;;;0.74;66.60;94985.91;1521303;92;21197;-49
2022/03/02 02:31:25;;;;;;;54.60;29.30;;;;;;;0.68;66.78;94976.02;1545541;90;21068;-57
2022/03/02 02:33:52;;;;;;;54.65;29.98;;;;;;;0.65;66.81;94976.78;1535115;92;21100;-52
2022/03/02 02:36:20;;;;;;;48.38;30.35;;;;;;;0.62;66.98;94973.45;1527039;92;21063;-56
2022/03/02 02:38:46;;;;;;;44.93;29.23;;;;;;;0.65;67.27;94967.30;1540453;90;21490;-50
2022/03/02 02:41:15;;;;;;;45.50;27.73;;;;;;;0.72;67.22;94967.33;1548414;90;21230;-50
2022/03/02 02:43:42;;;;;;;48.75;26.60;;;;;;;0.79;66.97;94965.23;1544113;90;21013;-52
2022/03/02 02:46:10;;;;;;;57.75;30.77;;;;;;;0.84;66.85;94960.24;1545488;90;21588;-53
2022/03/02 02:48:42;;;;;;;52.93;31.30;;;;;;;0.84;66.66;94961.59;1532386;91;21097;-50
2022/03/02 02:51:08;;;;;;;50.23;29.42;;;;;;;0.83;66.63;94958.69;1526320;90;21193;-51
2022/03/02 02:53:35;;;;;;;45.10;27.90;;;;;;;0.81;66.76;94956.16;1529293;91;21164;-50
2022/03/02 02:56:02;;;;;;;41.00;26.23;;;;;;;0.82;66.80;94952.29;1532374;90;21651;-52
2022/03/02 02:58:31;;;;;;;44.18;28.20;;;;;;;0.81;66.74;94950.15;1521642;92;21105;-51
2022/03/02 03:00:57;;;;;;;45.55;26.97;;;;;;;0.79;66.82;94948.40;1520562;92;21116;-53
2022/03/02 03:03:26;;;;;;;45.45;27.55;;;;;;;0.81;67.25;94939.91;1542168;90;21131;-50
2022/03/02 03:05:53;;;;;;;48.98;28.70;;;;;;;0.97;67.28;94940.37;1550866;90;21996;-51
2022/03/02 03:08:20;;;;;;;55.48;32.80;;;;;;;1.11;66.78;94937.12;1539319;90;21446;-51
2022/03/02 03:10:47;;;;;;;92.35;47.67;;;;;;;1.17;66.13;94934.83;1538783;91;21009;-54
2022/03/02 03:13:17;;;;;;;85.30;40.92;;;;;;;1.19;66.21;94930.58;1554328;91;21027;-50
2022/03/02 03:15:44;;;;;;;60.80;32.88;;;;;;;1.19;65.62;94928.44;1550254;90;21575;-55
2022/03/02 03:18:11;;;;;;;54.27;29.20;;;;;;;1.13;65.92;94926.67;1523189;92;21153;-51
2022/03/02 03:20:38;;;;;;;42.43;25.50;;;;;;;1.20;65.77;94925.36;1532424;90;21081;-50
2022/03/02 03:23:05;;;;;;;41.65;25.57;;;;;;;1.20;65.54;94914.52;1537627;90;21014;-51
2022/03/02 03:25:32;;;;;;;51.95;28.23;;;;;;;1.13;65.50;94913.12;1528401;92;21176;-50
2022/03/02 03:28:00;;;;;;;47.20;27.80;;;;;;;1.04;65.66;94918.15;1537355;90;21036;-50
2022/03/02 03:30:27;;;;;;;54.55;31.33;;;;;;;0.98;65.94;94914.83;1551379;90;21114;-51
2022/03/02 03:32:53;;;;;;;54.65;32.00;;;;;;;0.89;66.07;94912.48;1527181;92;21056;-50
2022/03/02 03:35:22;;;;;;;53.13;30.70;;;;;;;0.84;66.68;94911.50;1523078;92;21084;-53
2022/03/02 03:37:49;;;;;;;52.08;31.68;;;;;;;0.84;66.44;94912.86;1522814;92;21020;-51
2022/03/02 03:40:17;;;;;;;47.83;28.12;;;;;;;0.82;66.65;94907.05;1524477;92;21042;-49
2022/03/02 03:42:44;;;;;;;45.08;28.20;;;;;;;0.80;66.56;94903.16;1524893;91;21205;-50
2022/03/02 03:45:11;;;;;;;40.58;26.35;;;;;;;0.72;66.64;94909.13;1525365;91;21077;-51
2022/03/02 03:47:38;;;;;;;40.52;25.62;;;;;;;0.68;66.84;94898.86;1531681;91;21159;-54
2022/03/02 03:50:07;;;;;;;40.05;25.25;;;;;;;0.65;66.97;94899.63;1551875;91;21017;-51
2022/03/02 03:52:34;;;;;;;46.75;26.50;;;;;;;0.61;67.21;94906.94;1553118;90;21036;-51
2022/03/02 03:55:04;;;;;;;42.05;24.98;;;;;;;0.55;67.33;94912.52;1549825;90;21119;-49
2022/03/02 03:57:31;;;;;;;33.40;23.12;;;;;;;0.54;67.65;94909.63;1552031;90;21091;-52
2022/03/02 03:59:58;;;;;;;45.85;26.55;;;;;;;0.55;67.40;94902.30;1541532;90;21481;-50
2022/03/02 04:02:24;;;;;;;36.38;22.60;;;;;;;0.50;67.52;94899.36;1545823;91;21553;-51
2022/03/02 04:04:52;;;;;;;36.70;22.90;;;;;;;0.46;67.45;94901.84;1517671;94;21069;-50
2022/03/02 04:07:18;;;;;;;40.10;23.15;;;;;;;0.39;67.63;94902.58;1520907;92;21181;-51
2022/03/02 04:09:45;;;;;;;49.27;26.77;;;;;;;0.38;68.05;94896.21;1510284;92;21128;-52
2022/03/02 04:12:14;;;;;;;40.28;23.02;;;;;;;0.44;67.97;94895.45;1529295;92;21653;-51
2022/03/02 04:14:41;;;;;;;37.13;22.62;;;;;;;0.54;67.94;94896.09;1499404;93;21500;-51
2022/03/02 04:17:08;;;;;;;35.50;22.93;;;;;;;0.57;67.82;94892.63;1500664;93;21985;-49
2022/03/02 04:19:35;;;;;;;68.30;37.67;;;;;;;0.67;67.89;94891.11;1548266;90;21167;-51
2022/03/02 04:22:02;;;;;;;53.00;31.73;;;;;;;0.74;67.26;94890.56;1546298;90;21490;-52
2022/03/02 04:24:29;;;;;;;55.90;34.75;;;;;;;0.74;67.48;94887.10;1547347;90;21149;-50
2022/03/02 04:26:57;;;;;;;44.55;28.32;;;;;;;0.84;67.25;94883.08;1533106;90;21017;-50
2022/03/02 04:29:23;;;;;;;38.25;24.30;;;;;;;0.94;66.85;94882.31;1519563;92;21542;-51
2022/03/02 04:31:50;;;;;;;38.17;23.18;;;;;;;0.98;66.26;94879.03;1535311;92;21097;-52
2022/03/02 04:34:17;;;;;;;34.92;23.47;;;;;;;0.89;65.97;94881.34;1531410;91;21062;-49
2022/03/02 04:36:44;;;;;;;30.10;20.50;;;;;;;0.77;66.13;94874.91;1524500;92;21030;-51
2022/03/02 04:39:11;;;;;;;33.88;22.90;;;;;;;0.76;66.27;94882.84;1548314;90;21069;-50
2022/03/02 04:41:38;;;;;;;43.13;24.92;;;;;;;0.79;66.30;94875.89;1548036;90;21004;-51
2022/03/02 04:44:05;;;;;;;39.18;24.02;;;;;;;0.83;66.57;94865.28;1549948;90;21161;-54
2022/03/02 04:46:32;;;;;;;38.45;23.50;;;;;;;0.93;66.05;94875.35;1526226;90;21128;-55
2022/03/02 04:49:10;;;;;;;37.10;22.32;;;;;;;0.97;66.04;94871.31;1530726;91;21010;-52
2022/03/02 04:51:27;;;;;;;39.73;25.20;;;;;;;1.03;65.63;94874.62;1531682;92;21502;-52
2022/03/02 04:53:54;;;;;;;38.65;24.20;;;;;;;1.00;65.53;94880.02;1543040;92;21117;-50
2022/03/02 04:56:21;;;;;;;35.60;23.70;;;;;;;1.00;65.61;94880.77;1534265;90;21223;-51
2022/03/02 04:58:47;;;;;;;36.55;23.65;;;;;;;1.05;65.78;94877.72;1524844;92;20983;-50
2022/03/02 05:01:14;;;;;;;36.30;24.18;;;;;;;1.16;65.26;94875.03;1512789;93;21025;-51
2022/03/02 05:03:41;;;;;;;36.23;23.38;;;;;;;1.24;65.36;94877.37;1514675;93;21141;-54
2022/03/02 05:06:07;;;;;;;33.78;22.37;;;;;;;1.37;64.87;94876.42;1517047;93;21193;-53
2022/03/02 05:08:34;;;;;;;38.50;24.43;;;;;;;1.39;64.53;94880.30;1512429;94;21133;-52
2022/03/02 05:11:00;;;;;;;38.38;24.25;;;;;;;1.39;64.28;94879.52;1523514;93;21256;-51
2022/03/02 05:13:27;;;;;;;44.80;26.80;;;;;;;1.34;64.45;94882.02;1522279;93;21018;-52
2022/03/02 05:15:54;;;;;;;40.15;24.60;;;;;;;1.29;64.43;94878.94;1520456;93;21602;-51
2022/03/02 05:18:23;;;;;;;54.27;30.17;;;;;;;1.23;64.71;94881.23;1520475;92;21081;-51
2022/03/02 05:20:50;;;;;;;65.67;35.55;;;;;;;1.18;64.77;94883.55;1522867;93;21176;-50
2022/03/02 05:23:17;;;;;;;59.23;33.25;;;;;;;1.13;65.12;94887.39;1523877;93;21117;-50
2022/03/02 05:25:44;;;;;;;51.20;28.60;;;;;;;1.17;65.56;94884.11;1524227;93;21069;-52
2022/03/02 05:28:11;;;;;;;29.82;21.23;;;;;;;1.31;65.33;94880.67;1519774;92;21112;-53
2022/03/02 05:30:38;;;;;;;31.35;20.85;;;;;;;1.39;64.88;94883.58;1520800;93;21019;-51
2022/03/02 05:33:05;;;;;;;43.40;27.02;;;;;;;1.45;64.57;94872.54;1520263;93;21193;-53
2022/03/02 05:35:32;;;;;;;35.90;24.45;;;;;;;1.53;64.39;94876.23;1523596;92;21600;-50
2022/03/02 05:37:58;;;;;;;42.50;26.85;;;;;;;1.59;63.96;94876.63;1528397;93;21017;-51
2022/03/02 05:40:26;;;;;;;45.70;25.97;;;;;;;1.55;63.91;94885.34;1529468;93;21136;-52
2022/03/02 05:42:59;;;;;;;42.43;28.05;;;;;;;1.50;63.80;94880.31;1529271;92;21054;-51
2022/03/02 05:45:25;;;;;;;49.20;28.85;;;;;;;1.44;64.22;94883.98;1522571;93;21865;-54
2022/03/02 05:47:52;;;;;;;49.63;31.12;;;;;;;1.49;64.08;94878.77;1522119;93;21539;-52
2022/03/02 05:50:19;;;;;;;46.37;29.95;;;;;;;1.46;64.17;94879.51;1518826;93;21029;-52
2022/03/02 05:52:46;;;;;;;39.70;26.85;;;;;;;1.52;64.13;94877.39;1517957;93;21213;-52
2022/03/02 05:55:13;;;;;;;33.35;24.18;;;;;;;1.61;63.81;94880.51;1516557;93;21120;-52
2022/03/02 05:57:40;;;;;;;37.85;24.95;;;;;;;1.62;63.33;94877.20;1518171;93;21608;-52
2022/03/02 06:00:09;;;;;;;31.90;22.70;;;;;;;1.57;63.29;94875.67;1517396;93;21181;-52
2022/03/02 06:02:36;;;;;;;48.63;30.12;;;;;;;1.51;63.28;94877.20;1520441;93;21002;-51
2022/03/02 06:05:03;;;;;;;50.95;32.40;;;;;;;1.47;63.40;94872.36;1517911;93;21551;-51
2022/03/02 06:07:30;;;;;;;56.28;34.80;;;;;;;1.41;63.80;94872.56;1523186;93;21421;-53
2022/03/02 06:09:59;;;;;;;55.10;34.50;;;;;;;1.37;64.00;94878.56;1525688;93;21186;-51
2022/03/02 06:12:27;;;;;;;53.80;32.83;;;;;;;1.34;64.21;94871.17;1526517;93;21142;-51
2022/03/02 06:14:57;;;;;;;45.90;31.42;;;;;;;1.36;64.25;94871.56;1527171;93;21075;-52
2022/03/02 06:17:26;;;;;;;45.05;30.65;;;;;;;1.36;64.13;94874.87;1521235;93;21185;-53
2022/03/02 06:19:54;;;;;;;50.52;31.35;;;;;;;1.43;63.98;94875.66;1521675;93;21112;-52
2022/03/02 06:22:23;;;;;;;36.60;25.92;;;;;;;1.48;63.84;94873.91;1521785;93;21154;-53
2022/03/02 06:24:53;;;;;;;33.05;22.40;;;;;;;1.51;63.52;94866.35;1524067;93;21548;-51
2022/03/02 06:27:21;;;;;;;32.35;22.50;;;;;;;1.48;63.15;94873.15;1524973;93;21162;-53
2022/03/02 06:29:48;;;;;;;34.78;21.30;;;;;;;1.46;63.58;94870.81;1521006;93;21125;-54
2022/03/02 06:32:16;;;;;;;32.83;21.33;;;;;;;1.52;63.61;94871.97;1524022;92;21036;-55
2022/03/02 06:34:43;;;;;;;34.18;22.80;;;;;;;1.53;63.30;94875.47;1524574;92;21193;-55
2022/03/02 06:37:13;;;;;;;30.35;20.77;;;;;;;1.53;63.66;94870.80;1553962;91;21123;-53
2022/03/02 06:39:40;;;;;;;42.78;27.45;;;;;;;1.61;63.26;94867.52;1537127;90;21048;-60
2022/03/02 06:42:25;;;;;;;44.27;26.27;;;;;;;1.60;63.30;94872.19;1554533;91;21139;-57
2022/03/02 06:45:12;;;;;;;43.52;28.42;;;;;;;1.60;63.23;94878.96;1560443;91;21090;-58
2022/03/02 06:47:50;;;;;;;53.15;34.15;;;;;;;1.59;63.52;94877.41;1552754;89;21143;-55
2022/03/02 06:50:17;;;;;;;83.78;43.85;;;;;;;1.72;63.45;94871.78;1552587;90;21064;-52
2022/03/02 06:52:45;;;;;;;74.42;41.73;;;;;;;1.79;63.20;94869.08;1559201;90;21111;-54
2022/03/02 06:55:18;;;;;;;61.70;36.53;;;;;;;1.83;62.93;94874.70;1543443;91;21113;-52
2022/03/02 06:57:52;;;;;;;74.82;42.03;;;;;;;1.86;62.97;94866.35;1530823;91;21134;-54
2022/03/02 07:00:20;;;;;;;74.30;41.33;;;;;;;1.90;62.98;94867.91;1521725;91;21126;-55
2022/03/02 07:03:06;;;;;;;70.45;42.35;;;;;;;1.95;62.71;94870.82;1531097;91;21126;-62
2022/03/02 07:05:34;;;;;;;63.38;35.85;;;;;;;1.87;62.85;94867.34;1540289;91;21535;-62
2022/03/02 07:08:01;;;;;;;66.25;41.75;;;;;;;1.88;63.05;94873.52;1537540;91;21234;-58
2022/03/02 07:10:34;;;;;;;63.98;38.28;;;;;;;1.96;62.92;94866.34;1540735;90;21460;-58
2022/03/02 07:13:04;;;;;;;51.33;31.90;;;;;;;1.97;62.66;94868.48;1532447;90;21211;-55
2022/03/02 07:15:32;;;;;;;44.10;28.10;;;;;;;1.86;62.79;94869.86;1528206;91;21045;-54
2022/03/02 07:17:59;;;;;;;41.35;27.07;;;;;;;1.75;63.00;94868.31;1542883;91;21661;-56
2022/03/02 07:20:27;;;;;;;38.55;25.92;;;;;;;1.69;63.10;94868.48;1542752;90;21134;-57
2022/03/02 07:22:55;;;;;;;36.88;24.12;;;;;;;1.65;63.46;94865.02;1535822;90;21032;-57
2022/03/02 07:25:33;;;;;;;31.07;20.27;;;;;;;1.63;63.66;94862.48;1534452;91;21177;-61
2022/03/02 07:28:01;;;;;;;39.10;22.25;;;;;;;1.66;63.56;94864.44;1530194;92;21127;-60
2022/03/02 07:30:28;;;;;;;36.15;20.52;;;;;;;1.69;63.47;94853.58;1547473;90;21485;-58
2022/03/02 07:33:02;;;;;;;36.90;21.75;;;;;;;1.77;63.32;94855.14;1556799;90;21114;-59
2022/03/02 07:35:39;;;;;;;28.02;19.15;;;;;;;1.87;63.03;94857.84;1539642;90;21053;-62
2022/03/02 07:38:09;;;;;;;28.40;19.10;;;;;;;1.88;62.73;94855.89;1540550;91;21352;-58
2022/03/02 07:40:36;;;;;;;43.83;29.05;;;;;;;1.89;62.47;94856.08;1545977;90;21064;-56
2022/03/02 07:43:03;;;;;;;36.58;22.40;;;;;;;1.90;62.57;94851.63;1539897;90;21629;-56
2022/03/02 07:45:31;;;;;;;25.55;16.82;;;;;;;2.00;62.40;94841.94;1546302;90;21142;-60
2022/03/02 07:47:58;;;;;;;28.00;17.57;;;;;;;2.04;62.25;94839.41;1532657;91;21126;-57
2022/03/02 07:50:26;;;;;;;29.67;19.65;;;;;;;2.12;62.20;94839.58;1539033;91;21102;-56
2022/03/02 07:52:53;;;;;;;27.70;19.07;;;;;;;2.32;62.09;94830.44;1530541;90;21135;-56
2022/03/02 07:55:20;;;;;;;31.33;19.52;;;;;;;2.45;61.48;94836.96;1530820;92;21098;-58
2022/03/02 07:57:55;;;;;;;28.52;19.67;;;;;;;2.48;61.64;94837.56;1482487;95;21128;-55
2022/03/02 08:00:44;;;;;;;27.77;19.20;;;;;;;2.62;61.53;94836.91;1487330;93;21147;-57
2022/03/02 08:03:17;;;;;;;32.98;19.77;;;;;;;2.73;61.22;94833.55;1479223;92;22837;-58
2022/03/02 08:05:45;;;;;;;44.53;26.02;;;;;;;2.76;60.71;94830.64;1533337;90;21482;-62
2022/03/02 08:08:13;;;;;;;41.25;25.00;;;;;;;2.74;60.88;94828.34;1524510;90;21057;-55
2022/03/02 08:10:42;;;;;;;35.50;22.60;;;;;;;2.82;60.71;94827.70;1529577;90;21262;-54
2022/03/02 08:13:14;;;;;;;35.10;22.98;;;;;;;2.91;60.68;94819.91;1526753;91;21072;-60
2022/03/02 08:15:41;;;;;;;49.75;29.35;;;;;;;3.00;60.29;94818.30;1531832;90;21142;-53
2022/03/02 08:18:10;;;;;;;40.92;27.48;;;;;;;2.93;60.11;94816.98;1554230;90;21134;-56
2022/03/02 08:20:41;;;;;;;45.83;28.32;;;;;;;2.86;60.30;94813.53;1548660;90;21058;-58
2022/03/02 08:23:07;;;;;;;43.78;26.75;;;;;;;2.81;60.18;94815.28;1527920;91;21075;-59
2022/03/02 08:25:35;;;;;;;48.48;27.98;;;;;;;2.73;60.71;94807.75;1535135;91;21070;-57
2022/03/02 08:28:02;;;;;;;59.20;32.48;;;;;;;2.77;60.65;94813.17;1531301;90;21090;-58
2022/03/02 08:30:33;;;;;;;38.35;25.15;;;;;;;2.77;60.44;94810.45;1538213;89;21082;-53
2022/03/02 08:33:01;;;;;;;25.92;18.45;;;;;;;2.74;60.36;94813.97;1516545;92;21186;-55
2022/03/02 08:35:35;;;;;;;29.95;18.15;;;;;;;2.73;60.30;94811.06;1538272;90;21843;-58
2022/03/02 08:38:05;;;;;;;36.00;22.75;;;;;;;2.75;60.36;94806.01;1538100;90;21150;-63
2022/03/02 08:40:40;;;;;;;34.98;22.60;;;;;;;2.77;60.27;94796.88;1530242;90;21155;-58
2022/03/02 08:43:15;;;;;;;34.08;21.85;;;;;;;2.80;60.23;94796.08;1556646;88;21603;-61
2022/03/02 08:45:57;;;;;;;27.65;18.32;;;;;;;2.81;60.56;94792.20;1564509;89;21079;-57
2022/03/02 08:48:24;;;;;;;24.80;17.80;;;;;;;2.94;60.28;94794.08;1532624;90;21175;-59
2022/03/02 08:50:51;;;;;;;27.40;18.52;;;;;;;3.01;60.25;94798.67;1546197;90;21076;-65
2022/03/02 08:53:18;;;;;;;30.32;21.55;;;;;;;3.10;59.92;94795.73;1545534;90;21255;-58
2022/03/02 08:55:46;;;;;;;29.45;21.20;;;;;;;3.22;59.54;94791.17;1546099;90;21041;-56
2022/03/02 08:58:14;;;;;;;31.30;21.00;;;;;;;3.36;59.10;94793.00;1541288;91;22207;-58
2022/03/02 09:00:44;;;;;;;40.78;25.12;;;;;;;3.40;58.81;94787.73;1536913;90;21552;-60
2022/03/02 09:03:17;;;;;;;34.67;22.35;;;;;;;3.32;58.67;94784.11;1539560;90;21121;-60
2022/03/02 09:05:46;;;;;;;27.60;18.77;;;;;;;3.35;58.77;94783.30;1539126;90;21204;-56
2022/03/02 09:08:16;;;;;;;26.87;18.25;;;;;;;3.34;58.77;94779.83;1538941;90;21663;-57
2022/03/02 09:10:43;;;;;;;27.73;18.50;;;;;;;3.37;58.67;94783.10;1536870;90;21498;-58
2022/03/02 09:13:11;;;;;;;43.78;25.05;;;;;;;3.35;58.70;94770.50;1562475;89;21574;-58
2022/03/02 09:15:39;;;;;;;57.73;28.87;;;;;;;3.34;58.58;94773.03;1534601;90;21127;-62
2022/03/02 09:18:07;;;;;;;50.15;28.40;;;;;;;3.45;58.39;94762.83;1522404;91;21737;-58
2022/03/02 09:20:33;;;;;;;73.57;36.45;;;;;;;3.56;57.82;94760.23;1531621;90;21029;-60
2022/03/02 09:23:06;;;;;;;109.72;47.62;;;;;;;3.55;57.82;94760.02;1542670;90;21104;-60
2022/03/02 09:25:33;;;;;;;89.60;43.35;;;;;;;3.54;57.84;94754.39;1538066;90;21088;-60
2022/03/02 09:28:01;;;;;;;76.60;40.33;;;;;;;3.50;58.17;94745.50;1548667;90;21138;-58
2022/03/02 09:30:32;;;;;;;64.15;35.95;;;;;;;3.53;58.51;94753.45;1520285;91;23294;-56
2022/03/02 09:33:04;;;;;;;76.30;40.73;;;;;;;3.65;58.45;94746.92;1555981;89;21055;-56
2022/03/02 09:35:33;;;;;;;61.67;35.17;;;;;;;3.71;58.60;94738.50;1536450;90;21167;-55
2022/03/02 09:38:03;;;;;;;66.53;37.55;;;;;;;3.84;58.28;94727.91;1537326;91;21771;-56
2022/03/02 09:40:32;;;;;;;75.10;43.13;;;;;;;3.81;58.13;94730.83;1530911;92;21135;-55
2022/03/02 09:43:05;;;;;;;68.87;39.63;;;;;;;3.78;58.57;94725.42;1536732;90;21194;-68
2022/03/02 09:45:33;;;;;;;66.65;38.25;;;;;;;3.92;58.28;94722.56;1546339;90;21499;-56
2022/03/02 09:48:06;;;;;;;67.42;40.88;;;;;;;3.95;58.17;94721.17;1536480;90;20977;-58
2022/03/02 09:50:35;;;;;;;65.42;40.33;;;;;;;3.85;58.21;94722.04;1529257;91;21075;-55
2022/03/02 09:53:08;;;;;;;76.05;43.38;;;;;;;3.76;58.19;94727.77;1540757;90;21760;-57
2022/03/02 09:55:35;;;;;;;;;;;;;;;3.74;58.08;94724.11;1550629;90;22936;-57
2022/03/02 09:58:05;;;;;;;69.65;40.48;;;;;;;3.79;58.24;94721.52;1545719;90;20317;-57
2022/03/02 10:00:33;;;;;;;58.52;35.10;;;;;;;3.85;58.34;94719.32;1554348;90;21075;-55
2022/03/02 10:03:06;;;;;;;61.35;37.30;;;;;;;3.93;58.19;94717.30;1539057;90;21589;-56
2022/03/02 10:05:33;;;;;;;49.38;30.32;;;;;;;3.80;58.17;94719.77;1549401;91;21162;-57
2022/03/02 10:08:14;;;;;;;61.30;34.90;;;;;;;3.66;58.29;94715.83;1523064;91;21174;-57
2022/03/02 10:10:49;;;;;;;50.48;31.33;;;;;;;3.59;58.06;94710.46;1558657;89;21551;-60
2022/03/02 10:13:36;;;;;;;58.08;34.20;;;;;;;3.37;58.03;94710.27;1536373;90;21483;-61
2022/03/02 10:16:39;;;;;;;50.73;32.42;;;;;;;3.32;59.13;94699.84;1536642;91;21087;-60
2022/03/02 10:19:23;;;;;;;48.17;30.72;;;;;;;3.39;59.24;94696.47;1531745;91;21169;-57
2022/03/02 10:22:26;;;;;;;49.27;30.20;;;;;;;3.36;59.62;94694.56;1528982;92;21844;-55
2022/03/02 10:25:03;;;;;;;46.28;27.45;;;;;;;3.34;59.90;94698.84;1525654;90;21243;-57
2022/03/02 10:27:56;;;;;;;47.35;27.60;;;;;;;3.37;59.86;94687.95;1518302;92;21033;-57
2022/03/02 10:30:50;;;;;;;40.70;25.95;;;;;;;3.48;59.59;94681.83;1531825;90;22145;-58
2022/03/02 10:33:41;;;;;;;34.80;23.27;;;;;;;3.45;59.75;94681.86;1531408;91;21171;-61
2022/03/02 10:36:31;;;;;;;40.55;24.20;;;;;;;3.48;59.67;94673.07;1502526;93;21696;-60
2022/03/02 10:39:11;;;;;;;30.55;20.55;;;;;;;3.64;59.38;94675.23;1550138;90;21528;-64
2022/03/02 10:41:50;;;;;;;32.93;21.80;;;;;;;3.74;59.07;94673.00;1549017;90;21547;-61
2022/03/02 10:44:41;;;;;;;30.60;19.45;;;;;;;3.75;59.10;94659.01;1536032;92;21061;-60
2022/03/02 10:47:09;;;;;;;31.62;21.68;;;;;;;3.83;58.58;94649.58;1527282;90;21465;-60
2022/03/02 10:49:39;;;;;;;29.90;20.02;;;;;;;3.77;58.47;94649.06;1528263;92;21360;-61
2022/03/02 10:52:23;;;;;;;25.05;15.98;;;;;;;3.84;58.18;94642.20;1545450;90;21315;-56
2022/03/02 10:54:57;;;;;;;24.82;16.32;;;;;;;3.78;57.39;94645.95;1535536;90;21455;-57
2022/03/02 10:57:27;;;;;;;37.50;23.67;;;;;;;3.68;57.38;94636.55;1536144;90;21137;-58
2022/03/02 11:00:00;;;;;;;37.30;24.27;;;;;;;3.72;57.69;94638.03;1533849;91;21065;-60
2022/03/02 11:02:50;;;;;;;28.67;19.37;;;;;;;3.76;57.59;94638.78;1532109;91;21226;-58
2022/03/02 11:05:34;;;;;;;39.15;24.55;;;;;;;3.74;57.24;94640.36;1506095;91;21115;-58
2022/03/02 11:08:11;;;;;;;43.83;23.10;;;;;;;3.62;57.62;94631.35;1552469;89;21087;-57
2022/03/02 11:13:50;;;;;;;29.82;19.30;;;;;;;3.47;58.01;94638.72;1525034;91;21122;-55
2022/03/02 11:20:04;;;;;;;25.40;16.70;;;;;;;3.50;58.22;94636.73;1494875;92;21086;-57
2022/03/02 11:23:04;;;;;;;26.60;17.67;;;;;;;3.67;58.23;94628.20;1530241;90;21082;-58
2022/03/02 11:28:55;;;;;;;25.48;17.75;;;;;;;3.56;58.98;94629.69;1536258;90;22347;-58
2022/03/02 11:31:34;;;;;;;26.82;18.25;;;;;;;3.49;59.44;94619.47;1512205;91;21164;-56
2022/03/02 11:34:44;;;;;;;30.45;20.05;;;;;;;3.45;59.79;94624.76;1535293;90;21083;-56
2022/03/02 11:37:35;;;;;;;22.98;16.85;;;;;;;3.49;60.03;94631.70;1530070;92;21079;-59
2022/03/02 11:40:45;;;;;;;25.37;17.27;;;;;;;3.50;59.81;94620.41;1531992;89;21076;-56
2022/03/02 11:43:33;;;;;;;30.27;20.97;;;;;;;3.41;60.08;94615.88;1529882;92;21660;-56
2022/03/02 11:49:50;;;;;;;26.77;17.95;;;;;;;3.43;60.57;94606.12;1555933;89;21824;-55
2022/03/02 11:55:41;;;;;;;26.75;19.65;;;;;;;3.66;60.60;94598.11;1517690;91;20270;-56